Latest Weather Observations for Braidwood

IDN60801

Issued at 11:03 am EST Saturday 1 August 2015 (issued every 30 minutes, with the page automatically refreshed every 10 minutes)

About weather observations | Map of weather stations | Latest weather observations for NSW | Other Formats
Station Details ID: 069132 Name: BRAIDWOOD RACECOURSE AWS Lat: -35.43 Lon: 149.78 Height: 665.2 m
Data from the previous 72 hours. | See also: Recent months at Braidwood
Date/Time
EST
Temp
°C
App
Temp
°C
Dew
Point
Rel
Hum
%
Delta-T
°C
Wind Press
QNH
hPa
Press
MSL
hPa
Rain
since 9 am
mm
Dir
 
Spd
km/h
Gust
km/h
Spd
kts
Gust
kts
01/11:00am 12.2 7.7 4.4 59 3.7 NNW 17 30 9 16 1014.2 1014.9 0.0
01/10:30am 11.1 6.3 4.6 64 3.1 NW 19 32 10 17 1013.8 1014.6 0.0
01/10:00am 9.8 5.2 3.8 66 2.7 NNW 17 28 9 15 1014.7 1015.4 0.0
01/09:30am 8.6 4.4 3.6 71 2.2 NNW 15 28 8 15 1014.9 1015.9 0.0
01/09:00am 7.9 3.6 3.2 72 2.1 NNW 15 22 8 12 1015.2 1016.3 0.0
01/08:30am 9.1 5.6 3.5 68 2.5 NNW 11 20 6 11 1015.4 1016.5 0.0
01/08:00am 7.2 4.4 3.3 76 1.7 N 7 17 4 9 1015.9 1016.9 0.0
01/07:30am 5.9 2.6 2.5 79 1.5 NNW 9 20 5 11 1015.6 1016.7 0.0
01/07:00am 5.8 2.1 2.4 79 1.4 NNW 11 19 6 10 1015.1 1016.1 0.0
01/06:30am 6.1 2.8 2.6 78 1.5 NNW 9 20 5 11 1014.8 1015.8 0.0
01/06:00am 6.6 2.7 3.2 79 1.5 NNW 13 20 7 11 1015.1 1016.1 0.0
01/05:30am 6.0 2.5 3.3 83 1.2 NNW 11 17 6 9 1015.5 1016.6 0.0
01/05:00am 6.1 2.1 3.1 81 1.3 NW 13 20 7 11 1015.8 1016.8 0.0
01/04:30am 7.5 1.1 3.4 75 1.8 NW 26 39 14 21 1015.9 1016.9 0.0
01/04:00am 8.0 0.4 3.8 75 1.9 WNW 33 43 18 23 1015.9 1016.9 0.0
01/03:30am 8.3 -0.1 3.9 74 2.0 WNW 37 52 20 28 1015.9 1016.9 0.0
01/03:00am 8.5 0.5 3.8 72 2.1 WNW 35 50 19 27 1016.0 1017.0 0.0
01/02:34am 8.0 -0.4 3.5 73 2.0 NW 37 56 20 30 1016.1 1017.1 0.0
01/02:30am 7.8 -0.7 3.3 73 2.0 NW 37 50 20 27 1016.1 1017.1 0.0
01/02:00am 7.6 0.5 3.3 74 1.9 NW 30 44 16 24 1016.5 1017.6 0.0
01/01:30am 7.2 4.1 3.4 77 1.7 NNW 9 26 5 14 1017.5 1018.5 0.0
01/01:00am 7.7 3.1 3.7 76 1.8 NW 17 30 9 16 1018.0 1019.1 0.0
01/12:30am 6.3 3.5 2.9 79 1.5 N 7 11 4 6 1018.1 1019.2 0.0
01/12:00am 6.4 3.6 3.0 79 1.5 N 7 17 4 9 1018.5 1019.6 0.0
 
Date/Time
EST
Temp
°C
App
Temp
°C
Dew
Point
Rel
Hum
%
Delta-T
°C
Wind Press
QNH
hPa
Press
MSL
hPa
Rain
since 9 am
mm
Dir
 
Spd
km/h
Gust
km/h
Spd
kts
Gust
kts
31/11:30pm 6.4 3.7 2.7 77 1.6 N 6 11 3 6 1019.5 1020.6 0.0
31/11:00pm 6.2 3.3 2.7 78 1.5 NNW 7 13 4 7 1020.1 1021.2 0.0
31/10:30pm 6.3 1.8 2.4 76 1.7 NW 15 28 8 15 1019.8 1020.9 0.0
31/10:00pm 5.5 2.2 2.7 82 1.2 NNW 9 17 5 9 1019.7 1020.8 0.0
31/09:30pm 4.1 1.5 1.1 81 1.2 NNW 4 11 2 6 1019.9 1021.0 0.0
31/09:00pm 5.7 2.8 2.7 81 1.3 NW 7 11 4 6 1020.0 1021.1 0.0
31/08:30pm 3.9 2.1 1.1 82 1.1 CALM 0 0 0 0 1020.0 1021.1 0.0
31/08:00pm 5.0 2.4 0.9 75 1.7 N 4 9 2 5 1019.8 1020.9 0.0
31/07:30pm 6.3 4.1 1.0 69 2.2 WNW 2 11 1 6 1019.5 1020.6 0.0
31/07:00pm 7.6 3.1 1.9 67 2.4 NW 15 22 8 12 1019.5 1020.6 0.0
31/06:30pm 6.8 3.0 1.7 70 2.2 NW 11 15 6 8 1019.7 1020.8 0.0
31/06:00pm 7.6 3.8 1.9 67 2.4 NW 11 17 6 9 1019.4 1020.5 0.0
31/05:30pm 7.8 4.7 1.4 64 2.7 NW 7 13 4 7 1019.4 1020.5 0.0
31/05:00pm 10.4 7.6 2.0 56 3.7 NNW 6 11 3 6 1019.1 1020.2 0.0
31/04:30pm 12.0 8.3 2.5 52 4.3 NW 11 20 6 11 1018.7 1019.8 0.0
31/04:00pm 13.2 9.5 2.1 47 5.0 NNW 11 17 6 9 1018.6 1019.7 0.0
31/03:30pm 13.9 10.3 2.8 47 5.1 NNW 11 20 6 11 1018.6 1019.7 0.0
31/03:00pm 14.6 11.2 1.8 42 5.8 NNW 9 15 5 8 1018.7 1019.8 0.0
31/02:30pm 14.6 11.4 2.8 45 5.5 NNW 9 17 5 9 1018.5 1019.6 0.0
31/02:00pm 14.3 10.9 1.6 42 5.7 NNW 9 15 5 8 1018.5 1019.6 0.0
31/01:30pm 13.6 9.2 0.6 41 5.7 WNW 13 20 7 11 1018.8 1019.9 0.0
31/01:00pm 13.3 10.3 1.0 43 5.4 NW 6 9 3 5 1019.2 1020.3 0.0
31/12:30pm 13.3 10.4 1.3 44 5.3 ESE 6 22 3 12 1019.5 1020.6 0.0
31/12:00pm 12.8 10.6 3.2 52 4.4 WNW 4 9 2 5 1019.9 1021.0 0.0
31/11:30am 12.3 9.7 3.3 54 4.1 NNW 6 11 3 6 1020.4 1021.6 0.0
31/11:00am 10.4 7.7 2.5 58 3.5 NW 6 11 3 6 1020.7 1021.8 0.0
31/10:30am 10.7 8.2 3.5 61 3.3 NW 6 11 3 6 1020.7 1021.8 0.0
31/10:00am 10.2 7.8 4.1 66 2.8 N 6 11 3 6 1020.7 1021.8 0.0
31/09:30am 8.5 5.7 3.4 70 2.3 NNW 7 13 4 7 1020.6 1021.7 0.0
31/09:00am 6.8 4.6 3.1 77 1.6 NE 4 7 2 4 1020.4 1021.6 0.0
31/08:30am 5.2 3.1 2.0 80 1.3 NNW 2 7 1 4 1020.2 1021.3 0.0
31/08:00am 3.7 1.9 1.3 84 1.0 CALM 0 4 0 2 1019.8 1020.9 0.0
31/07:30am 2.4 0.2 1.2 92 0.5 N 2 6 1 3 1019.9 1021.0 0.0
31/07:00am 0.7 -2.2 -0.9 89 0.6 NE 4 7 2 4 1019.3 1020.4 0.0
31/06:30am 1.0 -1.5 -0.8 88 0.7 ESE 2 6 1 3 1018.6 1019.7 0.0
31/06:00am 2.3 -0.8 0.2 86 0.8 SE 6 13 3 7 1018.2 1019.3 0.0
31/05:30am 3.3 1.1 1.2 86 0.8 N 2 7 1 4 1017.7 1018.7 0.0
31/05:00am 2.9 0.6 0.3 83 1.0 NE 2 6 1 3 1017.1 1018.2 0.0
31/04:30am 2.8 -0.3 0.4 84 0.9 NNW 6 13 3 7 1017.1 1018.2 0.0
31/04:00am 3.4 0.8 0.8 83 1.0 NNE 4 7 2 4 1016.9 1018.0 0.0
31/03:30am 4.4 1.5 1.4 81 1.2 N 6 11 3 6 1016.8 1017.9 0.0
31/03:00am 4.6 1.5 1.5 80 1.3 N 7 15 4 8 1016.6 1017.7 0.0
31/02:30am 4.8 1.8 1.7 80 1.3 N 7 15 4 8 1016.8 1017.9 0.0
31/02:00am 5.2 2.2 2.0 80 1.3 NNE 7 15 4 8 1017.0 1018.1 0.0
31/01:30am 5.1 2.1 2.3 82 1.2 N 7 11 4 6 1017.5 1018.5 0.0
31/01:00am 4.4 0.6 1.6 82 1.2 NNW 11 19 6 10 1017.6 1018.6 0.0
31/12:30am 4.6 0.4 1.6 81 1.2 NNW 13 22 7 12 1017.6 1018.6 0.0
31/12:00am 4.8 1.0 1.8 81 1.2 NNW 11 20 6 11 1017.6 1018.6 0.0
 
Date/Time
EST
Temp
°C
App
Temp
°C
Dew
Point
Rel
Hum
%
Delta-T
°C
Wind Press
QNH
hPa
Press
MSL
hPa
Rain
since 9 am
mm
Dir
 
Spd
km/h
Gust
km/h
Spd
kts
Gust
kts
30/11:30pm 4.9 0.7 1.7 80 1.3 N 13 19 7 10 1018.0 1019.1 0.0
30/11:00pm 5.0 0.8 1.7 79 1.4 NNW 13 19 7 10 1018.3 1019.4 0.0
30/10:30pm 4.8 0.6 1.7 80 1.3 NNW 13 20 7 11 1018.6 1019.7 0.0
30/10:00pm 5.5 1.7 2.0 78 1.5 NNW 11 22 6 12 1018.5 1019.6 0.0
30/09:30pm 6.0 1.9 2.1 76 1.7 NNW 13 24 7 13 1018.4 1019.5 0.0
30/09:00pm 6.1 2.0 2.0 75 1.7 NNW 13 20 7 11 1018.8 1019.9 0.0
30/08:30pm 6.7 0.5 2.2 73 1.9 NW 24 35 13 19 1018.8 1019.9 0.0
30/08:00pm 6.8 -1.5 1.9 71 2.1 NW 35 50 19 27 1018.0 1019.1 0.0
30/07:30pm 6.9 -0.9 1.4 68 2.3 NW 32 46 17 25 1017.6 1018.6 0.0
30/07:12pm 7.2 -2.0 1.3 66 2.5 NW 39 59 21 32 1017.8 1018.9 0.0
30/07:00pm 7.3 -1.9 1.2 65 2.6 NW 39 56 21 30 1017.9 1019.0 0.0
30/06:32pm 7.5 -2.5 1.1 64 2.7 NW 43 63 23 34 1017.5 1018.5 0.0
30/06:30pm 7.5 -2.4 1.4 65 2.6 NW 43 57 23 31 1017.5 1018.5 0.0
30/06:12pm 7.6 -2.4 2.1 68 2.4 NW 44 67 24 36 1017.5 1018.5 0.0
30/06:00pm 7.6 -2.4 2.1 68 2.4 WNW 44 61 24 33 1017.4 1018.4 0.0
30/05:30pm 7.8 -3.1 1.4 64 2.7 NW 48 72 26 39 1016.8 1017.9 0.0
30/05:00pm 8.3 -2.3 0.8 59 3.1 NW 46 69 25 37 1016.6 1017.7 0.0
30/04:30pm 8.7 -1.0 0.4 56 3.5 NW 41 61 22 33 1016.6 1017.7 0.0
30/04:03pm 8.7 0.1 0.2 55 3.5 NW 35 59 19 32 1016.8 1017.9 0.0
30/04:00pm 8.8 0.6 0.3 55 3.5 NW 33 50 18 27 1016.9 1018.0 0.0
30/03:30pm 8.9 3.2 0.6 56 3.5 NW 20 44 11 24 1017.9 1019.0 0.0
30/03:00pm 10.0 4.4 0.1 50 4.1 NNW 19 33 10 18 1018.5 1019.6 0.0
30/02:30pm 10.2 5.4 0.3 50 4.2 NW 15 32 8 17 1019.3 1020.4 0.0
30/02:00pm 10.5 4.6 -0.9 45 4.7 NW 20 33 11 18 1019.2 1020.3 0.0
30/01:30pm 10.7 4.3 -1.4 43 4.9 NW 22 43 12 23 1019.7 1020.8 0.0
30/01:00pm 11.1 4.0 -1.0 43 5.0 NW 26 39 14 21 1020.0 1021.1 0.0
30/12:30pm 11.3 4.0 -0.2 45 4.9 NW 28 41 15 22 1020.0 1021.1 0.0
30/12:00pm 11.1 5.3 -0.4 45 4.8 NW 20 37 11 20 1020.8 1021.9 0.0
30/11:30am 10.8 5.4 1.1 51 4.2 NW 19 33 10 18 1021.5 1022.6 0.0
30/11:00am 10.3 4.7 0.9 52 4.0 NW 20 41 11 22 1021.8 1023.0 0.0
30/10:30am 10.0 4.7 1.6 56 3.7 NNW 19 30 10 16 1022.3 1023.4 0.0
30/10:00am 9.6 4.7 1.8 58 3.4 NNW 17 30 9 16 1023.0 1024.2 0.0
30/09:30am 8.5 3.9 1.4 61 3.0 NNW 15 24 8 13 1023.2 1024.4 0.0
30/09:00am 8.1 4.0 2.1 66 2.6 NNW 13 24 7 13 1023.4 1024.6 0.0
30/08:30am 5.6 1.7 1.0 72 1.9 N 11 19 6 10 1023.5 1024.7 0.0
30/08:00am 5.6 2.1 1.3 74 1.8 N 9 20 5 11 1023.8 1024.9 0.0
30/07:30am 5.2 1.3 1.3 76 1.6 NNW 11 17 6 9 1023.8 1024.9 0.0
30/07:00am 4.3 0.8 1.3 81 1.2 NNW 9 17 5 9 1023.6 1024.8 0.0
30/06:30am 3.8 0.6 1.0 82 1.1 N 7 13 4 7 1023.5 1024.7 0.0
30/06:00am 3.8 0.3 1.0 82 1.1 NNW 9 15 5 8 1023.6 1024.8 0.0
30/05:30am 3.9 0.4 1.1 82 1.1 NNW 9 17 5 9 1023.8 1024.9 0.0
30/05:00am 4.0 0.4 0.9 80 1.2 NNW 9 15 5 8 1024.1 1025.3 0.0
30/04:30am 4.6 0.3 1.3 79 1.4 NNW 13 19 7 10 1024.1 1025.3 0.0
30/04:00am 4.7 0.5 1.7 81 1.2 NW 13 20 7 11 1024.7 1025.9 0.0
30/03:30am 3.0 0.5 1.5 90 0.6 NW 4 15 2 8 1024.9 1026.1 0.0
30/03:00am 2.0 0.1 0.5 90 0.6 CALM 0 0 0 0 1025.6 1026.8 0.0
30/02:30am 1.2 -0.9 -0.7 87 0.7 CALM 0 0 0 0 1025.8 1027.0 0.0
30/02:00am 2.6 0.8 1.0 89 0.6 CALM 0 0 0 0 1026.2 1027.4 0.0
30/01:30am 1.2 -0.8 -0.3 90 0.6 CALM 0 0 0 0 1026.6 1027.9 0.0
30/01:00am 1.2 -1.2 -0.6 88 0.7 NNW 2 4 1 2 1026.8 1028.1 0.0
30/12:30am 1.8 -0.6 -0.3 86 0.8 N 2 6 1 3 1027.2 1028.4 0.0
30/12:00am 2.1 0.1 0.0 86 0.8 CALM 0 4 0 2 1027.7 1028.9 0.0
 
Date/Time
EST
Temp
°C
App
Temp
°C
Dew
Point
Rel
Hum
%
Delta-T
°C
Wind Press
QNH
hPa
Press
MSL
hPa
Rain
since 9 am
mm
Dir
 
Spd
km/h
Gust
km/h
Spd
kts
Gust
kts
29/11:30pm 3.0 0.8 0.9 86 0.8 N 2 6 1 3 1028.3 1029.6 0.0
29/11:00pm 2.3 0.0 0.2 86 0.8 NNW 2 4 1 2 1028.4 1029.7 0.0
29/10:30pm 2.4 -0.3 0.0 84 0.9 NNW 4 7 2 4 1028.4 1029.7 0.0
29/10:00pm 3.5 0.8 0.4 80 1.2 NNW 4 6 2 3 1028.5 1029.8 0.0
29/09:30pm 3.1 0.8 0.2 81 1.1 NNW 2 6 1 3 1028.7 1029.9 0.0
29/09:00pm 3.5 0.8 0.2 79 1.3 NNW 4 6 2 3 1028.9 1030.1 0.0
29/08:30pm 3.9 0.8 0.4 78 1.4 NW 6 6 3 3 1029.4 1030.7 0.0
29/08:00pm 3.4 1.0 -0.2 77 1.4 NNW 2 4 1 2 1029.4 1030.7 0.0
29/07:30pm 5.1 1.9 1.0 75 1.7 NW 7 11 4 6 1029.4 1030.7 0.0
29/07:00pm 3.2 0.0 -0.3 78 1.3 NW 6 7 3 4 1029.2 1030.5 0.0
29/06:30pm 3.1 0.9 -1.3 73 1.7 CALM 0 4 0 2 1029.1 1030.3 0.0
29/06:00pm 4.8 1.7 0.0 71 1.9 NW 6 7 3 4 1029.3 1030.6 0.0
29/05:30pm 5.9 2.7 -0.2 65 2.4 NNW 6 11 3 6 1028.9 1030.1 0.0
29/05:00pm 8.3 4.7 0.5 58 3.2 NW 9 15 5 8 1028.8 1030.0 0.0
29/04:30pm 10.3 6.9 1.7 55 3.8 NW 9 17 5 9 1028.9 1030.1 0.0
29/04:00pm 10.4 6.8 0.7 51 4.1 NW 9 19 5 10 1029.0 1030.2 0.0
29/03:30pm 11.7 7.8 1.1 48 4.6 NW 11 22 6 12 1029.0 1030.2 0.0
29/03:00pm 12.0 7.7 1.1 47 4.7 NW 13 22 7 12 1028.9 1030.1 0.0
29/02:30pm 12.3 8.0 1.0 46 4.9 NNW 13 24 7 13 1029.2 1030.5 0.0
29/02:00pm 11.8 7.3 -0.4 43 5.1 NW 13 24 7 13 1029.5 1030.8 0.0
29/01:30pm 11.8 7.0 0.3 45 4.9 NW 15 24 8 13 1030.0 1031.3 0.0
29/01:00pm 11.7 6.9 0.2 45 4.9 NW 15 26 8 14 1030.7 1032.0 0.0
29/12:30pm 11.7 7.3 0.5 46 4.8 NW 13 20 7 11 1031.3 1032.6 0.0
29/12:00pm 11.5 7.7 2.0 52 4.2 NW 11 19 6 10 1031.7 1033.1 0.0
29/11:30am 11.1 8.6 3.9 61 3.3 N 6 13 3 7 1032.4 1033.7 0.0

Other Formats:

Comma delimited format used in spreadsheet applications
http://www.bom.gov.au/fwo/IDN60801/IDN60801.94927.axf

JavaScript Object Notation format (JSON) in row-major order
http://www.bom.gov.au/fwo/IDN60801/IDN60801.94927.json